In Rescue
 
Open Full Screen Window  High Contrast Mode
Wind Gusting 15 knots
12
November 29, 2022 7:55 AM CST
Present Weather: Unknown Precipitation
Weather Information
Wind Direction
  360 °
Wind Speed
  12 kt (14 mph)
Wind Gust
  15 kt (17 mph)
Altimeter
29.61 in
Visibility
2 1/2 SM
Temperature
-01° C
30° F
Dewpoint
-01° C
30° F
Humidity
100%
1hr Rain Fall
00.00 in.
24hr Rain Fall
00.00 in.
Sky Condition
Overcast @ 800 ft
IFR

METAR KAEL 291355Z AUTO 36012G15KT 2 1/2SM UP OVC008 M01/M01 A2961 RMK AO2

FAA Disclaimer: The data displayed is for advisory purposes only and is not to be used for flight planning or operations.